createdAt,value
2019-05-17T00:02:26.630Z,53.50
2019-05-17T00:05:17.725Z,53.60
2019-05-17T00:08:07.751Z,53.50
2019-05-17T00:10:57.021Z,53.50
2019-05-17T00:13:46.597Z,53.50
2019-05-17T00:16:37.524Z,53.50
2019-05-17T00:19:26.323Z,53.50
2019-05-17T00:22:16.761Z,53.60
2019-05-17T00:25:07.311Z,53.60
2019-05-17T00:27:56.477Z,53.60
2019-05-17T00:30:46.449Z,53.60
2019-05-17T00:33:36.691Z,53.70
2019-05-17T00:36:27.485Z,53.60
2019-05-17T00:39:16.647Z,53.70
2019-05-17T00:42:06.936Z,53.70
2019-05-17T00:44:56.518Z,53.70
2019-05-17T00:47:46.843Z,53.70
2019-05-17T00:50:37.956Z,53.70
2019-05-17T00:53:26.897Z,53.80
2019-05-17T00:56:17.189Z,53.80
2019-05-17T00:59:07.491Z,53.80
2019-05-17T01:01:56.277Z,53.80
2019-05-17T01:04:44.582Z,53.80
2019-05-17T01:07:33.414Z,53.80
2019-05-17T01:10:21.890Z,53.80
2019-05-17T01:13:09.959Z,53.80
2019-05-17T01:15:58.162Z,53.80
2019-05-17T01:18:47.003Z,53.90
2019-05-17T01:21:36.858Z,53.90
2019-05-17T01:24:27.305Z,53.90
2019-05-17T01:27:17.048Z,53.90
2019-05-17T01:30:09.306Z,53.90
2019-05-17T01:32:57.490Z,53.90
2019-05-17T01:35:46.641Z,53.90
2019-05-17T01:38:37.685Z,53.90
2019-05-17T01:41:26.706Z,53.90
2019-05-17T01:43:57.944Z,53.90
2019-05-17T01:46:46.581Z,53.90
2019-05-17T01:49:36.327Z,53.90
2019-05-17T01:52:27.186Z,53.90
2019-05-17T01:55:17.198Z,53.90
2019-05-17T01:58:07.008Z,53.90
2019-05-17T02:00:57.166Z,53.90
2019-05-17T02:03:46.896Z,54.00
2019-05-17T02:06:36.569Z,53.90
2019-05-17T02:09:35.013Z,54.00
2019-05-17T02:12:13.926Z,53.90
2019-05-17T02:15:02.461Z,54.00
2019-05-17T02:17:50.931Z,54.00
2019-05-17T02:20:39.251Z,54.00
2019-05-17T02:23:27.613Z,54.00
2019-05-17T02:26:17.357Z,54.00
2019-05-17T02:29:05.562Z,54.00
2019-05-17T02:31:56.334Z,54.10
2019-05-17T02:34:44.684Z,54.10
2019-05-17T02:37:33.527Z,54.10
2019-05-17T02:40:22.740Z,54.10
2019-05-17T02:43:13.283Z,54.10
2019-05-17T02:46:03.610Z,54.10
2019-05-17T02:48:53.903Z,54.20
2019-05-17T02:51:43.122Z,54.20
2019-05-17T02:54:32.869Z,54.20
2019-05-17T02:57:23.250Z,54.20
2019-05-17T03:00:13.384Z,54.20
2019-05-17T03:03:03.394Z,54.20
2019-05-17T03:05:53.650Z,54.20
2019-05-17T03:08:42.950Z,54.20
2019-05-17T03:11:33.377Z,54.20
2019-05-17T03:14:22.963Z,54.30
2019-05-17T03:17:14.122Z,54.60
2019-05-17T03:20:03.978Z,54.70
2019-05-17T03:22:52.651Z,54.70
2019-05-17T03:25:44.061Z,54.80
2019-05-17T03:28:33.771Z,54.70
2019-05-17T03:31:26.299Z,54.80
2019-05-17T03:34:17.075Z,54.80
2019-05-17T03:37:06.660Z,54.70
2019-05-17T03:39:53.590Z,54.70
2019-05-17T03:42:42.832Z,54.70
2019-05-17T03:45:14.287Z,54.70
2019-05-17T03:48:04.932Z,55.20
2019-05-17T03:50:53.093Z,55.20
2019-05-17T03:53:44.273Z,55.10
2019-05-17T03:56:33.151Z,55.00
2019-05-17T03:59:24.195Z,54.90
2019-05-17T04:02:12.399Z,54.80
2019-05-17T04:05:04.277Z,54.80
2019-05-17T04:07:53.639Z,54.80
2019-05-17T04:10:42.594Z,54.70
2019-05-17T04:13:33.571Z,54.70
2019-05-17T04:16:23.621Z,54.70
2019-05-17T04:19:13.617Z,54.70
2019-05-17T04:22:03.484Z,54.70
2019-05-17T04:24:52.518Z,54.70
2019-05-17T04:27:43.172Z,54.70
2019-05-17T04:30:32.296Z,54.70
2019-05-17T04:33:19.239Z,54.70
2019-05-17T04:36:07.971Z,54.60
2019-05-17T04:38:56.053Z,54.60
2019-05-17T04:41:49.827Z,54.60
2019-05-17T04:44:34.434Z,54.70
2019-05-17T04:47:23.112Z,54.70
2019-05-17T04:50:13.572Z,54.70
2019-05-17T04:53:02.812Z,54.70
2019-05-17T04:55:54.027Z,54.70
2019-05-17T04:58:42.982Z,54.70
2019-05-17T05:01:32.934Z,55.30
2019-05-17T05:04:22.620Z,54.70
2019-05-17T05:07:13.680Z,54.70
2019-05-17T05:10:03.033Z,54.80
2019-05-17T05:12:52.430Z,54.80
2019-05-17T05:15:43.973Z,54.80
2019-05-17T05:18:33.136Z,54.80
2019-05-17T05:21:23.048Z,54.90
2019-05-17T05:24:11.639Z,54.80
2019-05-17T05:26:59.845Z,54.90
2019-05-17T05:29:48.167Z,54.90
2019-05-17T05:32:36.838Z,54.90
2019-05-17T05:35:25.138Z,54.90
2019-05-17T05:38:13.494Z,54.90
2019-05-17T05:41:02.023Z,54.90
2019-05-17T05:43:52.596Z,54.90
2019-05-17T05:46:24.156Z,54.90
2019-05-17T05:49:12.482Z,55.00
2019-05-17T05:52:02.055Z,55.00
2019-05-17T05:54:52.043Z,54.90
2019-05-17T05:57:41.897Z,55.00
2019-05-17T06:00:33.018Z,54.90
2019-05-17T06:03:22.509Z,54.90
2019-05-17T06:06:13.870Z,54.90
2019-05-17T06:09:02.737Z,54.90
2019-05-17T06:11:51.948Z,54.90
2019-05-17T06:14:41.712Z,54.90
2019-05-17T06:17:32.523Z,54.80
2019-05-17T06:20:23.835Z,54.90
2019-05-17T06:23:12.591Z,54.90
2019-05-17T06:26:04.088Z,54.90
2019-05-17T06:28:52.276Z,54.80
2019-05-17T06:31:43.380Z,54.90
2019-05-17T06:34:32.855Z,54.90
2019-05-17T06:37:25.689Z,54.90
2019-05-17T06:40:18.583Z,54.90
2019-05-17T06:43:14.596Z,54.90
2019-05-17T06:49:35.737Z,54.80
2019-05-17T06:52:39.883Z,54.90
2019-05-17T06:55:31.496Z,54.80
2019-05-17T06:58:24.402Z,54.80
2019-05-17T07:04:52.288Z,54.70
2019-05-17T07:08:11.059Z,54.80
2019-05-17T07:11:31.756Z,55.00
2019-05-17T07:14:29.394Z,55.30
2019-05-17T07:17:19.606Z,55.30
2019-05-17T07:20:10.062Z,55.60
2019-05-17T07:23:00.599Z,55.70
2019-05-17T07:25:50.516Z,55.60
2019-05-17T07:28:40.446Z,56.50
2019-05-17T07:31:29.742Z,57.50
2019-05-17T07:34:19.964Z,57.60
2019-05-17T07:37:10.527Z,57.80
2019-05-17T07:40:04.753Z,57.70
2019-05-17T07:42:50.090Z,57.90
2019-05-17T07:45:40.596Z,57.90
2019-05-17T07:48:31.086Z,57.70
2019-05-17T07:51:19.520Z,57.90
2019-05-17T07:54:10.295Z,57.90
2019-05-17T07:57:00.234Z,57.80
2019-05-17T07:59:47.636Z,57.90
2019-05-17T08:02:35.694Z,57.90
2019-05-17T08:05:24.062Z,58.00
2019-05-17T08:08:14.404Z,57.80
2019-05-17T08:11:02.637Z,57.80
2019-05-17T08:13:50.881Z,57.80
2019-05-17T08:16:39.571Z,57.60
2019-05-17T08:19:29.740Z,57.50
2019-05-17T08:22:20.323Z,57.40
2019-05-17T08:25:10.191Z,57.20
2019-05-17T08:27:59.465Z,57.10
2019-05-17T08:30:50.194Z,57.10
2019-05-17T08:33:37.938Z,57.00
2019-05-17T08:36:26.511Z,57.00
2019-05-17T08:39:15.253Z,57.10
2019-05-17T08:42:05.421Z,57.00
2019-05-17T08:44:53.791Z,57.00
2019-05-17T08:47:42.056Z,57.00
2019-05-17T08:50:30.554Z,57.10
2019-05-17T08:53:19.892Z,57.00
2019-05-17T08:56:09.984Z,57.00
2019-05-17T08:59:00.515Z,56.80
2019-05-17T09:01:50.600Z,56.70
2019-05-17T09:04:40.528Z,56.70
2019-05-17T09:07:29.513Z,56.70
2019-05-17T09:10:20.806Z,56.70
2019-05-17T09:13:12.405Z,56.70
2019-05-17T09:18:42.068Z,56.60
2019-05-17T09:21:31.332Z,56.60
2019-05-17T09:24:20.210Z,56.60
2019-05-17T09:27:10.144Z,56.50
2019-05-17T09:30:00.045Z,56.50
2019-05-17T09:32:50.360Z,56.50
2019-05-17T09:35:40.798Z,56.40
2019-05-17T09:38:29.547Z,56.30
2019-05-17T09:41:20.020Z,56.40
2019-05-17T09:44:15.585Z,56.30
2019-05-17T09:46:59.473Z,56.20
2019-05-17T09:49:50.120Z,56.30
2019-05-17T09:52:40.566Z,56.30
2019-05-17T09:55:30.126Z,56.40
2019-05-17T09:58:21.410Z,56.20
2019-05-17T10:01:09.440Z,56.10
2019-05-17T10:03:59.891Z,56.00
2019-05-17T10:06:48.348Z,56.00
2019-05-17T10:09:36.558Z,55.90
2019-05-17T10:12:24.772Z,55.90
2019-05-17T10:15:14.003Z,55.80
2019-05-17T10:18:03.780Z,55.70
2019-05-17T10:20:52.449Z,55.80
2019-05-17T10:23:40.880Z,55.70
2019-05-17T10:26:30.403Z,55.80
2019-05-17T10:29:18.877Z,55.60
2019-05-17T10:32:07.339Z,55.70
2019-05-17T10:34:57.005Z,55.60
2019-05-17T10:37:45.249Z,55.60
2019-05-17T10:40:33.623Z,55.60
2019-05-17T10:43:22.206Z,56.20
2019-05-17T10:46:10.978Z,56.10
2019-05-17T10:48:59.656Z,55.60
2019-05-17T10:51:49.437Z,55.80
2019-05-17T10:54:40.096Z,55.90
2019-05-17T10:57:46.118Z,56.40
2019-05-17T11:00:52.588Z,57.50
2019-05-17T11:03:59.543Z,58.00
2019-05-17T11:07:06.938Z,58.40
2019-05-17T11:10:15.072Z,58.50
2019-05-17T11:13:21.467Z,58.40
2019-05-17T11:16:28.156Z,58.30
2019-05-17T11:19:35.599Z,57.90
2019-05-17T11:22:42.168Z,58.00
2019-05-17T11:25:49.009Z,58.40
2019-05-17T11:28:55.882Z,58.20
2019-05-17T11:32:03.156Z,58.00
2019-05-17T11:35:10.823Z,57.90
2019-05-17T11:38:18.386Z,57.70
2019-05-17T11:41:25.526Z,57.70
2019-05-17T11:44:32.249Z,57.40
2019-05-17T11:47:38.885Z,57.50
2019-05-17T11:50:45.680Z,57.60
2019-05-17T11:53:53.959Z,57.60
2019-05-17T11:57:01.443Z,57.60
2019-05-17T12:00:10.776Z,57.50
2019-05-17T12:03:19.837Z,57.50
2019-05-17T12:06:27.423Z,57.60
2019-05-17T12:09:37.486Z,57.90
2019-05-17T12:12:42.298Z,57.80
2019-05-17T12:15:49.167Z,57.70
2019-05-17T12:18:56.506Z,57.50
2019-05-17T12:22:03.879Z,57.50
2019-05-17T12:25:12.415Z,57.50
2019-05-17T12:28:19.507Z,57.70
2019-05-17T12:31:26.441Z,57.60
2019-05-17T12:34:33.746Z,58.30
2019-05-17T12:37:42.525Z,58.30
2019-05-17T12:40:48.506Z,58.50
2019-05-17T12:43:55.520Z,58.30
2019-05-17T12:47:02.611Z,58.20
2019-05-17T12:50:11.935Z,58.10
2019-05-17T12:53:19.021Z,57.70
2019-05-17T12:56:26.002Z,58.10
2019-05-17T12:59:32.864Z,58.40
2019-05-17T13:02:39.592Z,58.60
2019-05-17T13:05:46.549Z,58.30
2019-05-17T13:08:54.110Z,58.20
2019-05-17T13:12:00.578Z,58.00
2019-05-17T13:15:09.025Z,58.00
2019-05-17T13:18:15.984Z,57.90
2019-05-17T13:21:23.263Z,58.10
2019-05-17T13:24:30.351Z,57.70
2019-05-17T13:27:39.193Z,57.50
2019-05-17T13:30:45.502Z,57.40
2019-05-17T13:33:52.708Z,57.40
2019-05-17T13:36:59.996Z,57.40
2019-05-17T13:40:08.195Z,56.80
2019-05-17T13:43:15.107Z,56.40
2019-05-17T13:46:32.879Z,56.90
2019-05-17T13:49:29.944Z,57.20
2019-05-17T13:52:38.009Z,57.10
2019-05-17T13:55:44.904Z,57.00
2019-05-17T13:58:52.343Z,56.90
2019-05-17T14:02:00.977Z,56.90
2019-05-17T14:05:08.692Z,56.90
2019-05-17T14:08:15.162Z,56.80
2019-05-17T14:11:21.683Z,56.80
2019-05-17T14:14:29.020Z,56.70
2019-05-17T14:17:36.261Z,56.70
2019-05-17T14:20:43.498Z,56.70
2019-05-17T14:23:49.790Z,56.70
2019-05-17T14:26:38.450Z,56.50
2019-05-17T14:29:09.381Z,56.60
2019-05-17T14:31:57.539Z,56.80
2019-05-17T14:34:46.116Z,57.40
2019-05-17T14:37:34.342Z,57.30
2019-05-17T14:40:23.632Z,57.10
2019-05-17T14:43:12.241Z,56.90
2019-05-17T14:46:01.856Z,56.90
2019-05-17T14:48:50.124Z,57.20
2019-05-17T14:51:38.679Z,57.20
2019-05-17T14:54:26.795Z,56.90
2019-05-17T14:57:15.399Z,57.00
2019-05-17T15:00:05.733Z,57.00
2019-05-17T15:02:54.185Z,57.00
2019-05-17T15:05:42.513Z,57.00
2019-05-17T15:08:33.663Z,57.00
2019-05-17T15:11:21.951Z,57.00
2019-05-17T15:14:10.312Z,57.00
2019-05-17T15:16:58.487Z,57.20
2019-05-17T15:19:46.778Z,57.10
2019-05-17T15:22:35.218Z,57.00
2019-05-17T15:25:25.942Z,57.10
2019-05-17T15:28:14.267Z,57.20
2019-05-17T15:31:03.680Z,57.30
2019-05-17T15:33:52.078Z,57.20
2019-05-17T15:36:40.696Z,57.30
2019-05-17T15:39:29.639Z,57.20
2019-05-17T15:42:18.322Z,57.30
2019-05-17T15:45:08.303Z,57.30
2019-05-17T15:47:58.828Z,57.30
2019-05-17T15:50:46.783Z,58.20
2019-05-17T15:53:35.724Z,57.20
2019-05-17T15:56:24.296Z,57.50
2019-05-17T15:59:12.518Z,57.40
2019-05-17T16:02:00.839Z,57.40
2019-05-17T16:04:48.943Z,57.50
2019-05-17T16:07:38.432Z,57.50
2019-05-17T16:10:26.682Z,58.60
2019-05-17T16:13:15.712Z,58.90
2019-05-17T16:16:03.929Z,59.10
2019-05-17T16:18:52.442Z,58.60
2019-05-17T16:21:41.206Z,59.20
2019-05-17T16:24:29.790Z,58.80
2019-05-17T16:27:18.586Z,59.00
2019-05-17T16:29:49.394Z,58.80
2019-05-17T16:32:37.971Z,58.70
2019-05-17T16:35:27.210Z,58.70
2019-05-17T16:38:15.375Z,58.40
2019-05-17T16:41:04.273Z,58.30
2019-05-17T16:43:52.769Z,58.80
2019-05-17T16:46:41.213Z,58.40
2019-05-17T16:49:29.708Z,58.00
2019-05-17T16:52:17.933Z,57.80
2019-05-17T16:55:08.074Z,57.70
2019-05-17T16:57:56.425Z,57.60
2019-05-17T17:00:45.781Z,57.50
2019-05-17T17:03:44.260Z,57.40
2019-05-17T17:06:24.859Z,57.30
2019-05-17T17:09:13.315Z,57.20
2019-05-17T17:12:01.722Z,57.30
2019-05-17T17:14:49.838Z,57.30
2019-05-17T17:17:37.972Z,57.50
2019-05-17T17:20:26.866Z,57.20
2019-05-17T17:23:15.722Z,57.20
2019-05-17T17:26:05.245Z,57.10
2019-05-17T17:28:53.336Z,57.00
2019-05-17T17:31:41.593Z,57.00
2019-05-17T17:34:31.423Z,56.90
2019-05-17T17:37:19.828Z,56.80
2019-05-17T17:40:10.098Z,56.80
2019-05-17T17:42:58.598Z,56.70
2019-05-17T17:45:46.833Z,56.60
2019-05-17T17:48:36.139Z,56.60
2019-05-17T17:51:25.392Z,56.50
2019-05-17T17:54:14.667Z,56.50
2019-05-17T17:57:03.553Z,57.70
2019-05-17T17:59:51.951Z,58.40
2019-05-17T18:02:40.225Z,58.10
2019-05-17T18:05:28.823Z,58.80
2019-05-17T18:08:17.030Z,58.30
2019-05-17T18:11:05.514Z,58.30
2019-05-17T18:13:53.780Z,58.30
2019-05-17T18:16:42.368Z,58.30
2019-05-17T18:19:31.084Z,58.10
2019-05-17T18:22:19.464Z,57.80
2019-05-17T18:25:08.285Z,58.30
2019-05-17T18:27:56.471Z,57.80
2019-05-17T18:30:34.337Z,58.70
2019-05-17T18:33:22.777Z,59.20
2019-05-17T18:36:13.570Z,59.20
2019-05-17T18:39:05.457Z,59.60
2019-05-17T18:41:54.862Z,59.20
2019-05-17T18:44:44.019Z,58.80
2019-05-17T18:47:32.391Z,58.80
2019-05-17T18:50:04.141Z,58.40
2019-05-17T18:52:34.783Z,58.10
2019-05-17T18:55:09.784Z,58.10
2019-05-17T18:57:40.581Z,58.10
2019-05-17T19:00:28.803Z,57.90
2019-05-17T19:03:17.235Z,58.20
2019-05-17T19:06:06.100Z,58.00
2019-05-17T19:08:54.467Z,57.80
2019-05-17T19:11:43.017Z,58.00
2019-05-17T19:14:42.467Z,57.90
2019-05-17T19:17:21.149Z,58.00
2019-05-17T19:20:12.113Z,58.20
2019-05-17T19:23:00.223Z,58.30
2019-05-17T19:25:49.977Z,57.60
2019-05-17T19:28:38.165Z,58.10
2019-05-17T19:31:26.927Z,58.10
2019-05-17T19:34:15.299Z,58.30
2019-05-17T19:37:03.485Z,58.80
2019-05-17T19:39:52.207Z,58.20
2019-05-17T19:42:40.356Z,58.00
2019-05-17T19:45:28.736Z,58.10
2019-05-17T19:48:19.670Z,57.90
2019-05-17T19:51:06.542Z,57.90
2019-05-17T19:53:55.719Z,57.90
2019-05-17T19:56:44.094Z,58.10
2019-05-17T19:59:32.391Z,57.70
2019-05-17T20:02:21.344Z,57.80
2019-05-17T20:05:10.929Z,57.70
2019-05-17T20:07:59.034Z,54.70
2019-05-17T20:10:47.688Z,56.60
2019-05-17T20:13:36.063Z,57.90
2019-05-17T20:16:24.341Z,57.80
2019-05-17T20:19:12.522Z,57.70
2019-05-17T20:22:00.673Z,57.50
2019-05-17T20:24:49.924Z,58.10
2019-05-17T20:27:38.527Z,57.90
2019-05-17T20:30:26.895Z,58.20
2019-05-17T20:33:15.333Z,58.10
2019-05-17T20:36:03.498Z,57.90
2019-05-17T20:38:51.953Z,58.40
2019-05-17T20:41:40.823Z,58.40
2019-05-17T20:44:29.211Z,58.30
2019-05-17T20:47:18.172Z,58.30
2019-05-17T20:50:09.061Z,58.30
2019-05-17T20:52:57.283Z,58.20
2019-05-17T20:55:45.998Z,58.20
2019-05-17T20:58:34.595Z,58.10
2019-05-17T21:01:23.054Z,58.20
2019-05-17T21:04:12.329Z,58.10
2019-05-17T21:07:00.622Z,58.10
2019-05-17T21:09:49.048Z,58.10
2019-05-17T21:12:37.310Z,58.10
2019-05-17T21:15:25.773Z,58.10
2019-05-17T21:18:13.977Z,58.20
2019-05-17T21:21:03.243Z,58.10
2019-05-17T21:23:51.646Z,58.20
2019-05-17T21:26:40.022Z,58.20
2019-05-17T21:29:28.640Z,58.20
2019-05-17T21:32:16.715Z,58.10
2019-05-17T21:35:07.822Z,58.20
2019-05-17T21:37:57.059Z,58.20
2019-05-17T21:40:45.179Z,58.30
2019-05-17T21:43:33.513Z,58.30
2019-05-17T21:46:21.905Z,58.30
2019-05-17T21:49:10.503Z,58.40
2019-05-17T21:51:58.918Z,58.40
2019-05-17T21:54:47.311Z,58.40
2019-05-17T21:57:35.937Z,58.30
2019-05-17T22:00:44.302Z,58.40
2019-05-17T22:03:33.021Z,58.40
2019-05-17T22:06:22.736Z,58.40
2019-05-17T22:09:11.564Z,58.40
2019-05-17T22:12:01.918Z,58.40
2019-05-17T22:14:50.288Z,58.40
2019-05-17T22:17:38.648Z,58.50
2019-05-17T22:20:27.447Z,58.50
2019-05-17T22:23:15.931Z,58.50
2019-05-17T22:26:04.501Z,58.50
2019-05-17T22:28:52.801Z,58.50
2019-05-17T22:31:41.139Z,58.50
2019-05-17T22:34:29.905Z,58.60
2019-05-17T22:37:18.545Z,58.60
2019-05-17T22:40:07.735Z,58.60
2019-05-17T22:42:56.448Z,58.60
2019-05-17T22:45:44.695Z,58.60
2019-05-17T22:48:33.363Z,58.60
2019-05-17T22:51:22.299Z,58.60
2019-05-17T22:54:10.844Z,58.60
2019-05-17T22:56:59.458Z,58.60
2019-05-17T22:59:47.928Z,58.70
2019-05-17T23:02:36.548Z,58.80
2019-05-17T23:05:26.566Z,58.80
2019-05-17T23:08:15.155Z,58.80
2019-05-17T23:11:03.276Z,58.90
2019-05-17T23:13:51.517Z,58.90
2019-05-17T23:16:51.133Z,58.80
2019-05-17T23:19:30.821Z,58.90
2019-05-17T23:22:19.255Z,58.90
2019-05-17T23:25:09.567Z,58.90
2019-05-17T23:27:57.761Z,58.90
2019-05-17T23:30:46.197Z,58.90
2019-05-17T23:33:34.877Z,58.90
2019-05-17T23:36:23.231Z,59.00
2019-05-17T23:39:11.529Z,59.00
2019-05-17T23:42:00.606Z,59.00
2019-05-17T23:44:48.995Z,59.00
2019-05-17T23:47:37.695Z,59.00
2019-05-17T23:50:25.889Z,59.00
2019-05-17T23:53:13.971Z,59.00
2019-05-17T23:56:03.490Z,59.00
2019-05-17T23:58:51.656Z,59.00
